Time;durP1;ratioP1;P1;durP2;ratioP2;P2;SDS_P1;SDS_P2;PMS_P1;PMS_P2;Temp;Humidity;BMP_temperature;BMP_pressure;BME280_temperature;BME280_humidity;BME280_pressure;Samples;Min_cycle;Max_cycle;Signal;HPM_P1;HPM_P2
2021/10/27 00:01:30;;;;;;;22.53;10.27;;;2.70;99.90;;;;;;4198195;28;20336;-64
2021/10/27 00:03:31;;;;;;;24.53;10.90;;;2.70;99.90;;;;;;4189237;28;20774;-65
2021/10/27 00:05:32;;;;;;;25.13;11.50;;;2.70;99.90;;;;;;4188337;28;20346;-63
2021/10/27 00:07:33;;;;;;;20.97;10.37;;;2.70;99.90;;;;;;4189457;28;20347;-66
2021/10/27 00:09:35;;;;;;;21.37;10.27;;;2.60;99.90;;;;;;4191841;28;20337;-63
2021/10/27 00:11:37;;;;;;;23.83;11.87;;;2.60;99.90;;;;;;4205045;28;20311;-64
2021/10/27 00:13:38;;;;;;;20.77;10.87;;;2.60;99.90;;;;;;4205604;28;20269;-63
2021/10/27 00:15:39;;;;;;;25.70;11.80;;;2.60;99.90;;;;;;4193086;28;20327;-63
2021/10/27 00:17:40;;;;;;;18.63;9.23;;;2.60;99.90;;;;;;4188943;28;20634;-64
2021/10/27 00:19:42;;;;;;;22.00;10.60;;;2.50;99.90;;;;;;4201646;28;20314;-63
2021/10/27 00:21:43;;;;;;;16.87;10.10;;;2.50;99.90;;;;;;4195966;28;20334;-64
2021/10/27 00:23:44;;;;;;;18.47;9.93;;;2.50;99.90;;;;;;4188972;28;20719;-63
2021/10/27 00:25:45;;;;;;;22.20;10.10;;;2.50;99.90;;;;;;4188317;28;20851;-64
2021/10/27 00:27:46;;;;;;;21.50;10.00;;;2.40;99.90;;;;;;4187969;28;20265;-63
2021/10/27 00:29:47;;;;;;;18.03;9.37;;;2.40;99.90;;;;;;4192707;28;20690;-62
2021/10/27 00:31:48;;;;;;;21.23;10.20;;;2.40;99.90;;;;;;4188663;28;20799;-62
2021/10/27 00:33:49;;;;;;;20.60;10.43;;;2.30;99.90;;;;;;4189141;28;20826;-62
2021/10/27 00:35:51;;;;;;;22.50;10.67;;;2.30;99.90;;;;;;4188729;28;20319;-63
2021/10/27 00:37:52;;;;;;;17.60;10.20;;;2.30;99.90;;;;;;4188974;28;21020;-62
2021/10/27 00:39:54;;;;;;;24.13;9.40;;;2.20;99.90;;;;;;4201191;28;20273;-62
2021/10/27 00:41:55;;;;;;;19.63;10.43;;;2.30;99.90;;;;;;4192127;28;20277;-63
2021/10/27 00:43:57;;;;;;;21.03;9.50;;;2.20;99.90;;;;;;4188610;28;20273;-65
2021/10/27 00:45:58;;;;;;;15.97;8.83;;;2.30;99.90;;;;;;4202926;28;20284;-65
2021/10/27 00:47:59;;;;;;;18.80;9.33;;;2.30;99.90;;;;;;4205663;28;20260;-62
2021/10/27 00:50:01;;;;;;;15.07;9.13;;;2.30;99.90;;;;;;4188884;28;20281;-63
2021/10/27 00:52:04;;;;;;;18.57;8.57;;;2.30;99.90;;;;;;4188465;28;20342;-64
2021/10/27 00:54:05;;;;;;;21.37;9.90;;;2.30;99.90;;;;;;4187669;28;20757;-63
2021/10/27 00:56:08;;;;;;;15.23;8.43;;;2.30;99.90;;;;;;4188749;28;20736;-65
2021/10/27 00:58:10;;;;;;;16.53;8.43;;;2.30;99.90;;;;;;4188644;28;20297;-64
2021/10/27 01:00:11;;;;;;;15.73;9.10;;;2.30;99.90;;;;;;4189159;28;20672;-66
2021/10/27 01:02:15;;;;;;;17.13;9.23;;;2.40;99.90;;;;;;4188193;28;20253;-64
2021/10/27 01:04:17;;;;;;;16.83;7.90;;;2.40;99.90;;;;;;4188789;28;20326;-63
2021/10/27 01:06:18;;;;;;;17.93;8.90;;;2.40;99.90;;;;;;4188119;28;20320;-65
2021/10/27 01:08:19;;;;;;;16.40;8.87;;;2.40;99.90;;;;;;4190348;28;20315;-66
2021/10/27 01:10:20;;;;;;;15.40;9.13;;;2.40;99.90;;;;;;4204593;28;20261;-63
2021/10/27 01:12:22;;;;;;;18.23;8.53;;;2.40;99.90;;;;;;4205592;28;20245;-63
2021/10/27 01:14:43;;;;;;;18.70;8.63;;;2.30;99.90;;;;;;4193013;28;20318;-64
2021/10/27 01:16:47;;;;;;;16.58;8.32;;;2.30;99.90;;;;;;4188192;28;20274;-63
2021/10/27 01:18:53;;;;;;;18.20;9.57;;;2.30;99.90;;;;;;4189442;28;20044;-65
2021/10/27 01:20:54;;;;;;;17.10;8.03;;;2.30;99.90;;;;;;4188249;28;20735;-65
2021/10/27 01:22:55;;;;;;;16.80;7.73;;;2.30;99.90;;;;;;4188490;28;20285;-63
2021/10/27 01:24:58;;;;;;;16.23;7.93;;;2.30;99.90;;;;;;4188201;28;20870;-64
2021/10/27 01:26:59;;;;;;;20.63;8.00;;;2.20;99.90;;;;;;4188085;28;20277;-64
2021/10/27 01:29:00;;;;;;;16.60;8.00;;;2.20;99.90;;;;;;4195013;28;20292;-63
2021/10/27 01:31:02;;;;;;;23.93;7.07;;;2.20;99.90;;;;;;4205121;28;20325;-65
2021/10/27 01:33:03;;;;;;;17.07;7.70;;;2.20;99.90;;;;;;4204402;28;20829;-65
2021/10/27 01:35:06;;;;;;;15.07;7.10;;;2.20;99.90;;;;;;4205666;28;20359;-65
2021/10/27 01:37:07;;;;;;;16.07;8.00;;;2.20;99.90;;;;;;4206073;28;20273;-63
2021/10/27 01:39:09;;;;;;;11.77;7.17;;;2.20;99.90;;;;;;4206596;28;20365;-66
2021/10/27 01:41:10;;;;;;;14.93;7.43;;;2.20;99.90;;;;;;4207267;28;20322;-64
2021/10/27 01:43:11;;;;;;;17.10;7.47;;;2.20;99.90;;;;;;4208025;28;20268;-66
2021/10/27 01:45:13;;;;;;;12.60;7.17;;;2.20;99.90;;;;;;4207196;28;20265;-64
2021/10/27 01:47:14;;;;;;;13.73;7.77;;;2.20;99.90;;;;;;4208181;28;20263;-63
2021/10/27 01:49:16;;;;;;;13.87;7.27;;;2.20;99.90;;;;;;4199280;28;21145;-65
2021/10/27 01:51:17;;;;;;;16.73;7.33;;;2.20;99.90;;;;;;4191477;28;20733;-65
2021/10/27 01:53:18;;;;;;;18.33;8.63;;;2.20;99.90;;;;;;4190997;28;20253;-65
2021/10/27 01:55:19;;;;;;;18.50;8.27;;;2.10;99.90;;;;;;4191307;28;20742;-64
2021/10/27 01:57:20;;;;;;;15.67;8.40;;;2.00;99.90;;;;;;4191246;28;20315;-64
2021/10/27 01:59:22;;;;;;;15.97;8.00;;;2.00;99.90;;;;;;4192459;28;20327;-62
2021/10/27 02:01:23;;;;;;;17.50;7.97;;;1.90;99.90;;;;;;4191371;28;20265;-62
2021/10/27 02:03:24;;;;;;;17.47;8.13;;;1.90;99.90;;;;;;4193663;28;20280;-64
2021/10/27 02:05:25;;;;;;;11.83;7.10;;;1.90;99.90;;;;;;4207850;28;20733;-64
2021/10/27 02:07:27;;;;;;;19.30;7.20;;;1.90;99.90;;;;;;4208119;28;20775;-64
2021/10/27 02:09:29;;;;;;;15.87;6.87;;;1.90;99.90;;;;;;4206275;28;20820;-66
2021/10/27 02:11:30;;;;;;;12.90;7.23;;;1.90;99.90;;;;;;4206866;28;20285;-64
2021/10/27 02:13:31;;;;;;;16.57;6.90;;;1.90;99.90;;;;;;4204405;28;20678;-64
2021/10/27 02:15:32;;;;;;;13.13;6.53;;;1.90;99.90;;;;;;4190335;28;20261;-64
2021/10/27 02:17:33;;;;;;;16.30;7.33;;;1.90;99.90;;;;;;4190884;28;20266;-63
2021/10/27 02:19:35;;;;;;;11.63;7.00;;;1.90;99.90;;;;;;4191609;28;20683;-64
2021/10/27 02:21:36;;;;;;;13.80;7.07;;;1.90;99.90;;;;;;4191036;28;20347;-63
2021/10/27 02:23:37;;;;;;;13.97;6.97;;;2.00;99.90;;;;;;4195698;28;20361;-62
2021/10/27 02:25:40;;;;;;;13.77;6.80;;;1.90;99.90;;;;;;4207466;28;20264;-62
2021/10/27 02:27:41;;;;;;;13.07;6.57;;;2.00;99.90;;;;;;4207096;28;20743;-63
2021/10/27 02:29:42;;;;;;;12.10;7.40;;;2.00;99.90;;;;;;4205646;28;20350;-63
2021/10/27 02:31:43;;;;;;;12.37;5.93;;;2.00;99.90;;;;;;4205380;28;21248;-63
2021/10/27 02:33:46;;;;;;;10.43;5.83;;;2.00;99.90;;;;;;4200835;28;20319;-63
2021/10/27 02:35:47;;;;;;;11.63;6.10;;;2.10;99.90;;;;;;4189301;28;20765;-64
2021/10/27 02:37:49;;;;;;;14.23;6.30;;;2.10;99.90;;;;;;4190782;28;20296;-65
2021/10/27 02:39:50;;;;;;;12.90;6.60;;;2.10;99.90;;;;;;4191734;28;20261;-64
2021/10/27 02:41:51;;;;;;;10.77;6.60;;;2.10;99.90;;;;;;4189607;28;20269;-65
2021/10/27 02:43:52;;;;;;;17.07;8.03;;;2.00;99.90;;;;;;4199077;28;20323;-63
2021/10/27 02:45:53;;;;;;;16.73;7.80;;;2.00;99.90;;;;;;4189886;28;20269;-65
2021/10/27 02:47:54;;;;;;;13.47;6.30;;;1.90;99.90;;;;;;4190414;28;20354;-64
2021/10/27 02:49:55;;;;;;;14.67;7.20;;;1.90;99.90;;;;;;4189916;28;21325;-63
2021/10/27 02:51:56;;;;;;;12.03;6.27;;;1.80;99.90;;;;;;4191281;28;20273;-63
2021/10/27 02:53:58;;;;;;;14.00;7.33;;;1.80;99.90;;;;;;4197042;28;20306;-65
2021/10/27 02:55:59;;;;;;;11.77;6.53;;;1.80;99.90;;;;;;4206252;28;20353;-63
2021/10/27 02:58:00;;;;;;;14.30;7.30;;;1.80;99.90;;;;;;4206653;28;20265;-63
2021/10/27 03:00:03;;;;;;;15.83;7.37;;;1.80;99.90;;;;;;4206337;28;20253;-65
2021/10/27 03:02:05;;;;;;;17.50;6.40;;;1.80;99.90;;;;;;4190937;28;21142;-65
2021/10/27 03:04:08;;;;;;;14.13;6.47;;;1.80;99.90;;;;;;4195630;28;20272;-67
2021/10/27 03:06:09;;;;;;;12.63;7.03;;;1.80;99.90;;;;;;4201892;28;20338;-65
2021/10/27 03:08:10;;;;;;;15.27;6.43;;;1.80;99.90;;;;;;4188484;28;21094;-65
2021/10/27 03:10:12;;;;;;;12.10;6.13;;;1.70;99.90;;;;;;4189672;28;20334;-64
2021/10/27 03:12:14;;;;;;;12.33;5.83;;;1.70;99.90;;;;;;4190503;28;20265;-64
2021/10/27 03:14:15;;;;;;;12.57;6.30;;;1.80;99.90;;;;;;4200578;28;20273;-63
2021/10/27 03:16:17;;;;;;;10.83;6.67;;;1.80;99.90;;;;;;4206454;28;20345;-65
2021/10/27 03:18:18;;;;;;;14.73;6.47;;;1.80;99.90;;;;;;4206876;28;20285;-66
2021/10/27 03:20:19;;;;;;;13.37;6.27;;;1.80;99.90;;;;;;4205873;28;20280;-64
2021/10/27 03:22:20;;;;;;;16.07;5.40;;;1.80;99.90;;;;;;4190610;28;20660;-64
2021/10/27 03:24:21;;;;;;;16.50;6.80;;;1.80;99.90;;;;;;4200814;28;20288;-63
2021/10/27 03:26:23;;;;;;;14.07;6.93;;;1.70;99.90;;;;;;4206520;28;20273;-65
2021/10/27 03:28:24;;;;;;;12.80;6.10;;;1.70;99.90;;;;;;4206255;28;20349;-65
2021/10/27 03:30:25;;;;;;;12.37;6.20;;;1.70;99.90;;;;;;4206182;28;21024;-65
2021/10/27 03:32:27;;;;;;;11.03;5.63;;;1.70;99.90;;;;;;4204495;28;20369;-62
2021/10/27 03:34:28;;;;;;;11.70;6.27;;;1.70;99.90;;;;;;4192973;28;20269;-63
2021/10/27 03:36:30;;;;;;;12.57;5.97;;;1.70;99.90;;;;;;4189589;28;20265;-63
2021/10/27 03:38:32;;;;;;;11.67;6.67;;;1.70;99.90;;;;;;4189771;28;20334;-66
2021/10/27 03:40:33;;;;;;;12.90;6.70;;;1.70;99.90;;;;;;4190239;28;20346;-67
2021/10/27 03:42:34;;;;;;;15.37;6.30;;;1.70;99.90;;;;;;4189235;28;20270;-64
2021/10/27 03:44:35;;;;;;;15.93;7.37;;;1.70;99.90;;;;;;4184168;28;20286;-63
2021/10/27 03:46:36;;;;;;;16.33;7.33;;;1.70;99.90;;;;;;4188698;28;20346;-62
2021/10/27 03:48:38;;;;;;;10.53;6.03;;;1.70;99.90;;;;;;4190620;28;20319;-67
2021/10/27 03:50:40;;;;;;;11.27;6.07;;;1.60;99.90;;;;;;4188517;28;20747;-65
2021/10/27 03:52:43;;;;;;;12.33;5.87;;;1.60;99.90;;;;;;4189669;28;20350;-65
2021/10/27 03:54:44;;;;;;;11.80;5.87;;;1.60;99.90;;;;;;4188705;28;20315;-66
2021/10/27 03:56:45;;;;;;;12.00;5.57;;;1.60;99.90;;;;;;4191499;28;20414;-64
2021/10/27 03:58:46;;;;;;;12.27;6.20;;;1.60;99.90;;;;;;4203181;28;20358;-65
2021/10/27 04:00:48;;;;;;;18.60;6.83;;;1.60;99.90;;;;;;4188202;28;20338;-62
2021/10/27 04:02:49;;;;;;;13.40;6.63;;;1.60;99.90;;;;;;4188312;28;20791;-65
2021/10/27 04:04:51;;;;;;;11.40;6.13;;;1.60;99.90;;;;;;4204482;28;20288;-62
2021/10/27 04:06:52;;;;;;;12.57;5.87;;;1.70;99.90;;;;;;4188633;28;20331;-63
2021/10/27 04:08:53;;;;;;;11.93;5.83;;;1.60;99.90;;;;;;4196802;28;20310;-64
2021/10/27 04:10:54;;;;;;;12.20;6.40;;;1.70;99.90;;;;;;4205095;28;20277;-64
2021/10/27 04:12:55;;;;;;;15.23;6.33;;;1.60;99.90;;;;;;4205215;28;20273;-63
2021/10/27 04:14:57;;;;;;;12.83;7.20;;;1.60;99.90;;;;;;4204318;28;20428;-64
2021/10/27 04:16:58;;;;;;;14.60;8.20;;;1.50;99.90;;;;;;4202683;28;20765;-62
2021/10/27 04:18:59;;;;;;;20.03;8.17;;;1.50;99.90;;;;;;4197684;28;20727;-64
2021/10/27 04:21:00;;;;;;;18.87;9.03;;;1.40;99.90;;;;;;4187103;28;20766;-65
2021/10/27 04:23:03;;;;;;;14.77;8.00;;;1.40;99.90;;;;;;4187871;28;20330;-64
2021/10/27 04:25:08;;;;;;;16.13;7.43;;;1.40;99.90;;;;;;4187501;28;21176;-63
2021/10/27 04:27:09;;;;;;;12.13;7.17;;;1.40;99.90;;;;;;4188897;28;20261;-63
2021/10/27 04:29:10;;;;;;;18.27;6.83;;;1.40;99.90;;;;;;4188093;28;20910;-64
2021/10/27 04:31:11;;;;;;;18.03;8.03;;;1.40;99.90;;;;;;4188907;28;20299;-63
2021/10/27 04:33:22;;;;;;;18.63;7.20;;;1.30;99.90;;;;;;4188044;28;20579;-62
2021/10/27 04:35:25;;;;;;;16.08;6.63;;;1.40;99.90;;;;;;4187438;28;20265;-61
2021/10/27 04:37:27;;;;;;;15.83;7.70;;;1.40;99.90;;;;;;4188007;28;20040;-63
2021/10/27 04:39:29;;;;;;;16.73;8.50;;;1.40;99.90;;;;;;4186569;28;20842;-64
2021/10/27 04:41:30;;;;;;;17.60;7.97;;;1.40;99.90;;;;;;4188535;28;20414;-65
2021/10/27 04:43:31;;;;;;;16.53;8.30;;;1.40;99.90;;;;;;4187782;28;21386;-63
2021/10/27 04:45:32;;;;;;;14.83;7.60;;;1.40;99.90;;;;;;4185787;28;20273;-64
2021/10/27 04:47:33;;;;;;;12.30;6.70;;;1.40;99.90;;;;;;4187365;28;20350;-65
2021/10/27 04:49:34;;;;;;;19.80;7.73;;;1.30;99.90;;;;;;4187661;28;20277;-64
2021/10/27 04:51:36;;;;;;;12.30;6.83;;;1.40;99.90;;;;;;4187199;28;20277;-64
2021/10/27 04:53:37;;;;;;;13.53;7.80;;;1.30;99.90;;;;;;4186276;28;20275;-67
2021/10/27 04:55:38;;;;;;;16.87;7.67;;;1.30;99.90;;;;;;4187826;28;20273;-65
2021/10/27 04:57:39;;;;;;;13.60;7.43;;;1.30;99.90;;;;;;4188446;28;20315;-63
2021/10/27 04:59:44;;;;;;;17.87;8.20;;;1.30;99.90;;;;;;4187914;28;20342;-65
2021/10/27 05:01:46;;;;;;;19.77;9.30;;;1.30;99.90;;;;;;4186922;28;20327;-64
2021/10/27 05:03:47;;;;;;;26.63;9.00;;;1.30;99.90;;;;;;4178792;28;20713;-64
2021/10/27 05:05:53;;;;;;;25.57;11.30;;;1.20;99.90;;;;;;4186315;28;20306;-63
2021/10/27 05:07:56;;;;;;;22.90;11.13;;;1.10;99.90;;;;;;4186785;28;20346;-63
2021/10/27 05:09:57;;;;;;;24.10;9.97;;;1.00;99.90;;;;;;4185608;28;20290;-64
2021/10/27 05:11:59;;;;;;;27.40;11.83;;;1.00;99.90;;;;;;4186654;28;20265;-63
2021/10/27 05:14:00;;;;;;;23.10;11.60;;;1.00;99.90;;;;;;4184016;28;20338;-64
2021/10/27 05:16:01;;;;;;;25.50;11.57;;;1.10;99.90;;;;;;4189500;28;20261;-63
2021/10/27 05:18:02;;;;;;;27.20;12.07;;;1.30;99.90;;;;;;4189800;28;20818;-63
2021/10/27 05:20:04;;;;;;;37.97;13.83;;;1.50;99.90;;;;;;4190080;28;20301;-65
2021/10/27 05:22:06;;;;;;;27.07;14.10;;;1.70;99.90;;;;;;4185149;28;20324;-63
2021/10/27 05:24:08;;;;;;;27.73;11.93;;;2.00;99.90;;;;;;4189382;28;20315;-63
2021/10/27 05:26:09;;;;;;;26.47;11.47;;;2.40;99.90;;;;;;4190616;28;20311;-65
2021/10/27 05:28:11;;;;;;;24.33;12.43;;;2.70;99.90;;;;;;4191022;28;20827;-68
2021/10/27 05:30:12;;;;;;;21.23;10.83;;;3.10;99.90;;;;;;4191301;28;20291;-66
2021/10/27 05:32:13;;;;;;;22.03;11.73;;;3.40;99.90;;;;;;4191541;28;20837;-65
2021/10/27 05:34:14;;;;;;;27.63;12.50;;;3.70;99.90;;;;;;4190718;28;20270;-63
2021/10/27 05:36:16;;;;;;;25.90;12.07;;;4.00;99.90;;;;;;4191091;28;20741;-63
2021/10/27 05:38:17;;;;;;;28.33;12.57;;;4.30;99.90;;;;;;4191322;28;20323;-63
2021/10/27 05:40:18;;;;;;;27.47;12.27;;;4.50;99.90;;;;;;4190731;28;20293;-63
2021/10/27 05:42:27;;;;;;;24.50;11.43;;;4.90;99.90;;;;;;4191087;28;20274;-63
2021/10/27 05:44:28;;;;;;;21.47;10.17;;;5.30;99.90;;;;;;4190753;28;20745;-64
2021/10/27 05:46:29;;;;;;;28.87;12.50;;;5.70;99.90;;;;;;4190738;28;20291;-64
2021/10/27 05:48:33;;;;;;;27.50;11.30;;;5.70;99.90;;;;;;4191005;28;20718;-64
2021/10/27 05:50:46;;;;;;;22.40;11.13;;;5.50;99.90;;;;;;4190801;28;20028;-65
2021/10/27 05:55:22;;;;;;;29.17;14.02;;;5.40;99.90;;;;;;4191013;28;20055;-63
2021/10/27 05:57:28;;;;;;;40.07;14.87;;;5.60;99.90;;;;;;4190543;28;20040;-65
2021/10/27 05:59:29;;;;;;;36.33;17.67;;;5.80;99.90;;;;;;4190176;28;20100;-64
2021/10/27 06:01:30;;;;;;;59.43;24.27;;;5.80;99.90;;;;;;4190363;28;20431;-62
2021/10/27 06:03:32;;;;;;;55.73;23.37;;;6.00;99.90;;;;;;4190421;28;20032;-64
2021/10/27 06:05:35;;;;;;;67.73;25.63;;;6.10;99.90;;;;;;4190657;28;20040;-64
2021/10/27 06:07:36;;;;;;;50.30;23.13;;;6.50;99.90;;;;;;4190658;28;20044;-63
2021/10/27 06:09:38;;;;;;;62.67;29.47;;;6.80;99.90;;;;;;4190020;28;20447;-62
2021/10/27 06:11:39;;;;;;;68.10;30.77;;;6.80;99.90;;;;;;4190982;28;20032;-63
2021/10/27 06:13:46;;;;;;;67.27;30.40;;;7.00;99.90;;;;;;4190144;28;20182;-63
2021/10/27 06:15:47;;;;;;;73.80;29.97;;;6.70;99.90;;;;;;4190605;28;20445;-63
2021/10/27 06:17:49;;;;;;;73.50;29.50;;;6.30;99.90;;;;;;4189539;28;20083;-63
2021/10/27 06:19:53;;;;;;;60.13;29.30;;;5.70;99.90;;;;;;4190185;28;20501;-62
2021/10/27 06:21:54;;;;;;;60.77;28.30;;;5.50;99.90;;;;;;4190246;28;20560;-64
2021/10/27 06:23:55;;;;;;;61.50;27.07;;;5.70;99.90;;;;;;4190016;28;20059;-64
2021/10/27 06:25:57;;;;;;;61.27;28.47;;;6.00;99.90;;;;;;4190648;28;20078;-64
2021/10/27 06:28:09;;;;;;;61.23;26.00;;;6.20;99.90;;;;;;4189990;28;20024;-62
2021/10/27 06:30:16;;;;;;;54.00;24.73;;;5.90;99.90;;;;;;4190579;28;20029;-62
2021/10/27 06:34:28;;;;;;;42.93;21.10;;;5.60;99.90;;;;;;4190139;28;20455;-63
2021/10/27 06:47:47;;;;;;;42.73;23.73;;;6.10;99.90;;;;;;4189551;28;20444;-64
2021/10/27 06:49:48;;;;;;;47.03;20.83;;;6.10;99.60;;;;;;4189210;28;20074;-63
2021/10/27 06:51:50;;;;;;;43.43;21.57;;;5.80;99.70;;;;;;4189837;28;20783;-63
2021/10/27 06:53:51;;;;;;;43.97;21.40;;;5.80;99.90;;;;;;4188544;28;20089;-62
2021/10/27 06:55:52;;;;;;;51.53;22.80;;;6.10;99.90;;;;;;4188558;28;20086;-63
2021/10/27 06:57:54;;;;;;;47.57;24.70;;;6.40;99.70;;;;;;4189350;28;20358;-63
2021/10/27 07:00:02;;;;;;;54.33;25.57;;;6.90;99.40;;;;;;4189733;28;20103;-62
2021/10/27 07:04:49;;;;;;;51.63;26.03;;;7.40;98.80;;;;;;4154706;28;20068;-65
2021/10/27 07:07:07;;;;;;;57.08;28.10;;;8.00;98.20;;;;;;4176028;28;20546;-64
2021/10/27 07:16:07;;;;;;;59.90;27.33;;;7.80;98.10;;;;;;4189827;28;20558;-63
2021/10/27 07:18:09;;;;;;;55.03;25.20;;;7.80;97.90;;;;;;4189550;28;20043;-62
2021/10/27 07:20:10;;;;;;;47.27;23.73;;;7.70;97.70;;;;;;4188684;28;20488;-63
2021/10/27 07:22:13;;;;;;;49.43;25.00;;;7.80;97.80;;;;;;4189770;28;20074;-62
2021/10/27 07:24:16;;;;;;;59.13;25.83;;;7.70;97.60;;;;;;4188627;28;20464;-63
2021/10/27 07:26:18;;;;;;;49.47;25.47;;;7.30;98.10;;;;;;4188551;28;20077;-63
2021/10/27 07:28:20;;;;;;;51.07;24.73;;;7.40;98.40;;;;;;4188918;28;20053;-64
2021/10/27 07:30:22;;;;;;;59.60;26.03;;;7.60;98.00;;;;;;4189047;28;20048;-64
2021/10/27 07:32:25;;;;;;;62.83;26.37;;;7.40;98.30;;;;;;4188931;28;20033;-63
2021/10/27 07:34:38;;;;;;;49.93;24.53;;;7.50;98.50;;;;;;4188533;28;20090;-63
2021/10/27 07:41:18;;;;;;;54.00;27.13;;;7.30;98.90;;;;;;4189400;28;20062;-63
2021/10/27 07:43:26;;;;;;;50.47;26.60;;;7.20;99.10;;;;;;4188447;28;20109;-63
2021/10/27 07:45:31;;;;;;;58.07;25.00;;;7.10;99.10;;;;;;4188754;28;20066;-65
2021/10/27 07:47:32;;;;;;;47.17;24.20;;;7.10;99.30;;;;;;4188202;28;20119;-65
2021/10/27 07:49:33;;;;;;;52.47;22.17;;;7.30;99.00;;;;;;4188875;28;20032;-67
2021/10/27 07:51:34;;;;;;;50.13;23.60;;;7.20;99.00;;;;;;4188597;28;20938;-64
2021/10/27 07:53:36;;;;;;;46.60;22.30;;;7.10;99.20;;;;;;4188737;28;20431;-63
2021/10/27 07:55:41;;;;;;;52.20;23.03;;;7.00;99.40;;;;;;4188284;28;20044;-64
2021/10/27 07:57:43;;;;;;;44.60;22.47;;;7.10;99.40;;;;;;4188477;28;20028;-64
2021/10/27 07:59:44;;;;;;;44.00;21.97;;;7.20;99.40;;;;;;4189062;28;20102;-64
2021/10/27 08:01:46;;;;;;;42.67;22.10;;;7.40;99.20;;;;;;4187775;28;20973;-64
2021/10/27 08:03:47;;;;;;;46.10;23.00;;;7.70;98.90;;;;;;4188690;28;20052;-63
2021/10/27 08:05:48;;;;;;;42.87;22.43;;;7.60;98.80;;;;;;4187962;28;20036;-64
2021/10/27 08:07:50;;;;;;;38.63;21.20;;;7.70;98.90;;;;;;4188710;28;20105;-63
2021/10/27 08:09:51;;;;;;;47.40;23.17;;;7.70;98.90;;;;;;4188372;28;20044;-62
2021/10/27 08:11:52;;;;;;;48.17;24.67;;;7.90;98.90;;;;;;4186694;28;20032;-63
2021/10/27 08:13:54;;;;;;;49.47;25.97;;;7.80;98.70;;;;;;4188300;28;20082;-64
2021/10/27 08:15:56;;;;;;;49.33;23.13;;;7.90;98.70;;;;;;4188397;28;20029;-63
2021/10/27 08:17:57;;;;;;;49.00;23.90;;;8.00;98.60;;;;;;4188597;28;20093;-63
2021/10/27 08:19:58;;;;;;;43.80;21.37;;;8.00;98.60;;;;;;4188451;28;20036;-64
2021/10/27 08:22:03;;;;;;;43.60;22.00;;;8.10;98.60;;;;;;4188448;28;20086;-65
2021/10/27 08:24:04;;;;;;;51.80;22.60;;;8.20;98.50;;;;;;4188264;28;20044;-64
2021/10/27 08:26:09;;;;;;;49.40;20.93;;;8.40;98.20;;;;;;4187951;28;20105;-64
2021/10/27 08:28:14;;;;;;;42.80;21.57;;;8.40;98.30;;;;;;4187411;28;20522;-65
2021/10/27 08:30:19;;;;;;;43.30;21.50;;;8.70;98.30;;;;;;4188074;28;20033;-64
2021/10/27 08:34:48;;;;;;;41.65;19.33;;;9.00;97.70;;;;;;4188319;28;20508;-64
2021/10/27 08:36:49;;;;;;;46.87;21.23;;;9.30;97.70;;;;;;4187940;28;20165;-66
2021/10/27 08:38:52;;;;;;;39.70;19.30;;;9.60;97.20;;;;;;4187259;28;20423;-65
2021/10/27 08:40:55;;;;;;;37.37;19.40;;;9.80;96.80;;;;;;4187721;28;20029;-64
2021/10/27 08:42:58;;;;;;;41.03;19.50;;;9.80;96.70;;;;;;4187670;28;20098;-64
2021/10/27 08:44:59;;;;;;;38.90;19.00;;;9.90;96.60;;;;;;4187254;28;20284;-65
2021/10/27 08:47:02;;;;;;;39.87;17.83;;;9.90;96.50;;;;;;4188063;28;20415;-66
2021/10/27 08:49:06;;;;;;;39.70;18.47;;;9.80;96.70;;;;;;4186131;28;20054;-66
2021/10/27 08:51:10;;;;;;;51.27;19.27;;;10.10;96.50;;;;;;4188019;28;20564;-65
2021/10/27 08:53:15;;;;;;;37.93;17.40;;;10.70;95.90;;;;;;4185480;28;20037;-64
2021/10/27 08:55:17;;;;;;;66.10;30.53;;;11.00;95.50;;;;;;4187598;28;20040;-65
2021/10/27 08:57:19;;;;;;;76.53;31.30;;;10.90;95.20;;;;;;4187654;28;20119;-67
2021/10/27 08:59:24;;;;;;;65.57;28.50;;;10.80;95.40;;;;;;4187713;28;20044;-64
2021/10/27 09:15:58;;;;;;;39.03;18.10;;;10.80;95.60;;;;;;4162427;28;20130;-65
2021/10/27 09:35:29;;;;;;;29.13;15.23;;;12.40;93.80;;;;;;4187949;28;20059;-62
2021/10/27 09:56:42;;;;;;;44.83;18.77;;;12.40;93.00;;;;;;4188193;28;20086;-66
2021/10/27 10:05:45;;;;;;;29.95;14.85;;;12.50;92.80;;;;;;4190551;28;20093;-64
2021/10/27 10:07:47;;;;;;;23.13;12.27;;;12.60;92.70;;;;;;4190529;28;20082;-65
2021/10/27 10:09:48;;;;;;;25.00;12.83;;;12.60;92.50;;;;;;4190682;28;20036;-66
2021/10/27 10:11:49;;;;;;;27.00;12.57;;;12.50;92.50;;;;;;4190645;28;20073;-64
2021/10/27 10:13:53;;;;;;;24.43;11.20;;;12.60;92.40;;;;;;4189949;28;20048;-63
2021/10/27 10:15:54;;;;;;;21.97;11.57;;;12.50;92.30;;;;;;4189912;28;20045;-63
2021/10/27 10:17:56;;;;;;;32.20;12.93;;;12.60;92.30;;;;;;4190213;28;20102;-63
2021/10/27 10:19:57;;;;;;;24.93;13.00;;;12.60;92.30;;;;;;4189850;28;20488;-63
2021/10/27 10:21:58;;;;;;;29.73;11.87;;;12.70;92.20;;;;;;4189613;28;20480;-63
2021/10/27 10:26:32;;;;;;;21.73;11.43;;;12.90;91.70;;;;;;4189934;28;20033;-63
2021/10/27 10:28:40;;;;;;;23.37;11.77;;;13.00;92.00;;;;;;4188821;28;20052;-63
2021/10/27 10:30:49;;;;;;;21.43;10.97;;;13.00;91.90;;;;;;4190189;28;20041;-64
2021/10/27 10:33:05;;;;;;;13.77;7.90;;;13.10;92.00;;;;;;4189632;28;20029;-63
2021/10/27 10:35:13;;;;;;;8.97;5.80;;;13.20;90.80;;;;;;4190268;28;20036;-63
2021/10/27 10:37:29;;;;;;;17.90;7.93;;;13.20;91.00;;;;;;4189238;28;20082;-63
2021/10/27 10:39:48;;;;;;;12.90;6.83;;;13.20;90.50;;;;;;4189835;28;20049;-64
2021/10/27 10:42:09;;;;;;;22.60;7.67;;;13.20;90.60;;;;;;4189320;28;20044;-63
2021/10/27 10:57:00;;;;;;;13.27;6.30;;;13.20;87.20;;;;;;4189975;28;20079;-65
2021/10/27 11:01:54;;;;;;;11.20;5.97;;;13.30;89.00;;;;;;4189837;28;20115;-63
2021/10/27 11:24:10;;;;;;;8.48;3.22;;;13.90;83.30;;;;;;4189335;28;20086;-66
2021/10/27 11:40:37;;;;;;;11.50;2.77;;;14.20;76.60;;;;;;4189756;28;20029;-64
2021/10/27 11:42:42;;;;;;;7.33;3.00;;;14.20;75.00;;;;;;4188276;28;20032;-64
2021/10/27 11:47:07;;;;;;;5.27;2.87;;;14.40;76.00;;;;;;4188674;28;20377;-65
2021/10/27 11:49:10;;;;;;;6.75;3.17;;;14.40;75.10;;;;;;4189286;28;20414;-64
2021/10/27 11:51:15;;;;;;;6.20;2.87;;;14.50;75.40;;;;;;4188802;28;20118;-65
2021/10/27 11:53:33;;;;;;;7.07;2.50;;;14.50;75.60;;;;;;4187216;28;20033;-64
2021/10/27 11:55:37;;;;;;;6.13;2.47;;;14.50;75.20;;;;;;4188511;28;20028;-64
2021/10/27 11:57:41;;;;;;;7.17;2.83;;;14.60;75.60;;;;;;4189050;28;20476;-66
2021/10/27 11:59:48;;;;;;;9.50;3.43;;;14.70;75.30;;;;;;4188687;28;20078;-68
2021/10/27 12:01:52;;;;;;;4.10;3.00;;;14.70;75.00;;;;;;4189067;28;20109;-65
2021/10/27 12:03:57;;;;;;;5.40;3.00;;;14.70;74.10;;;;;;4188887;28;20431;-65
2021/10/27 12:06:06;;;;;;;4.43;2.50;;;14.70;74.00;;;;;;4188899;28;20459;-64
2021/10/27 12:10:42;;;;;;;9.10;3.23;;;14.80;73.50;;;;;;4189537;28;20082;-63
2021/10/27 12:17:31;;;;;;;5.93;2.97;;;14.70;70.90;;;;;;4188012;28;20062;-64
2021/10/27 12:19:36;;;;;;;7.07;2.87;;;14.80;72.90;;;;;;4188497;28;20058;-64
2021/10/27 12:21:51;;;;;;;4.10;2.80;;;14.80;71.90;;;;;;4186789;28;20101;-65
2021/10/27 12:23:53;;;;;;;7.27;2.87;;;14.80;70.60;;;;;;4188297;28;20050;-63
2021/10/27 12:26:10;;;;;;;5.85;2.97;;;14.80;71.40;;;;;;4187089;28;20455;-64
2021/10/27 12:28:42;;;;;;;6.17;2.67;;;14.70;69.10;;;;;;4188411;28;20741;-63
2021/10/27 12:30:46;;;;;;;4.07;2.67;;;14.50;67.70;;;;;;4171291;28;20441;-65
2021/10/27 12:32:55;;;;;;;5.83;2.67;;;14.50;70.50;;;;;;4188526;28;20036;-66
2021/10/27 12:35:12;;;;;;;3.83;2.33;;;14.50;70.30;;;;;;4188041;28;20114;-67
2021/10/27 12:37:31;;;;;;;7.17;2.83;;;14.60;70.20;;;;;;4188072;28;20098;-65
2021/10/27 12:39:46;;;;;;;7.57;3.20;;;14.60;69.70;;;;;;4188617;28;20028;-64
2021/10/27 12:42:06;;;;;;;7.47;3.10;;;14.70;69.00;;;;;;4187841;28;20103;-65
2021/10/27 12:44:46;;;;;;;5.30;2.80;;;14.70;68.50;;;;;;4188207;28;20036;-64
2021/10/27 12:47:01;;;;;;;5.40;2.75;;;14.80;68.40;;;;;;4176251;28;20189;-64
2021/10/27 12:49:04;;;;;;;5.27;2.87;;;14.80;69.30;;;;;;4188497;28;20033;-64
2021/10/27 12:51:09;;;;;;;5.80;2.90;;;14.90;69.10;;;;;;4188250;28;20078;-63
2021/10/27 12:53:10;;;;;;;5.33;2.50;;;14.90;69.10;;;;;;4188162;28;20032;-64
2021/10/27 12:55:16;;;;;;;12.67;4.37;;;14.80;69.30;;;;;;4187887;28;20042;-63
2021/10/27 12:57:17;;;;;;;6.17;3.13;;;14.80;68.80;;;;;;4188034;28;20475;-62
2021/10/27 12:59:28;;;;;;;7.23;3.30;;;14.80;69.20;;;;;;4188051;28;20020;-65
2021/10/27 13:01:39;;;;;;;4.47;2.80;;;14.70;68.90;;;;;;4187668;28;20049;-64
2021/10/27 13:11:19;;;;;;;7.33;3.67;;;14.80;69.00;;;;;;4189474;28;20090;-63
2021/10/27 13:15:54;;;;;;;4.97;2.80;;;14.80;69.00;;;;;;4176620;28;20032;-64
2021/10/27 13:31:12;;;;;;;9.63;3.63;;;14.70;68.60;;;;;;4187508;28;20102;-63
2021/10/27 13:33:13;;;;;;;7.75;3.85;;;14.50;68.30;;;;;;4188815;28;20081;-63